<?xml version="1.0" encoding="UTF-8" standalone="no" ?>
<gpx xmlns="http://www.topografix.com/GPX/1/1" xmlns:xsi="http://www.w3.org/2001/XMLSchema-instance" xsi:schemaLocation="http://www.topografix.com/GPX/1/1 http://www.topografix.com/GPX/1/1/gpx.xsd" version="1.1" creator="VisuGPX - https://www.visugpx.com">
  <metadata>
    <name>BUL D\'AIR CUP 2013</name>
    <desc><![CDATA[Parcours Bul d\'air 2013 en Vaucluse]]></desc>
  </metadata>
  <trk>
    <name><![CDATA[BUL D\'AIR CUP 2013_1]]></name>
    <trkseg>
      <trkpt lat="43.97851" lon="4.88975">
        <ele>-38</ele>
        <time>2013-10-26T07:59:47Z</time>
      </trkpt>
      <trkpt lat="43.97851" lon="4.88976">
        <ele>-38</ele>
        <time>2013-10-26T08:00:17Z</time>
      </trkpt>
      <trkpt lat="43.97851" lon="4.88975">
        <ele>-38</ele>
        <time>2013-10-26T08:00:47Z</time>
      </trkpt>
      <trkpt lat="43.97851" lon="4.88975">
        <ele>-40</ele>
        <time>2013-10-26T08:01:17Z</time>
      </trkpt>
      <trkpt lat="43.97847" lon="4.88981">
        <ele>-40</ele>
        <time>2013-10-26T08:01:48Z</time>
      </trkpt>
      <trkpt lat="43.97846" lon="4.88984">
        <ele>-40</ele>
        <time>2013-10-26T08:02:18Z</time>
      </trkpt>
      <trkpt lat="43.97849" lon="4.88983">
        <ele>-40</ele>
        <time>2013-10-26T08:02:48Z</time>
      </trkpt>
      <trkpt lat="43.97851" lon="4.8898">
        <ele>-40</ele>
        <time>2013-10-26T08:03:18Z</time>
      </trkpt>
      <trkpt lat="43.97815" lon="4.88998">
        <ele>-40</ele>
        <time>2013-10-26T08:03:48Z</time>
      </trkpt>
      <trkpt lat="43.97718" lon="4.89108">
        <ele>-40</ele>
        <time>2013-10-26T08:04:19Z</time>
      </trkpt>
      <trkpt lat="43.97665" lon="4.89265">
        <ele>-33</ele>
        <time>2013-10-26T08:04:49Z</time>
      </trkpt>
      <trkpt lat="43.97633" lon="4.89408">
        <ele>-33</ele>
        <time>2013-10-26T08:05:19Z</time>
      </trkpt>
      <trkpt lat="43.97503" lon="4.89464">
        <ele>-33</ele>
        <time>2013-10-26T08:05:49Z</time>
      </trkpt>
      <trkpt lat="43.97379" lon="4.8951">
        <ele>-33</ele>
        <time>2013-10-26T08:06:20Z</time>
      </trkpt>
      <trkpt lat="43.97263" lon="4.89266">
        <ele>-34</ele>
        <time>2013-10-26T08:06:50Z</time>
      </trkpt>
      <trkpt lat="43.973" lon="4.89419">
        <ele>-34</ele>
        <time>2013-10-26T08:07:20Z</time>
      </trkpt>
      <trkpt lat="43.97396" lon="4.89619">
        <ele>-34</ele>
        <time>2013-10-26T08:07:50Z</time>
      </trkpt>
      <trkpt lat="43.97438" lon="4.89803">
        <ele>-28</ele>
        <time>2013-10-26T08:08:21Z</time>
      </trkpt>
      <trkpt lat="43.97421" lon="4.9002">
        <ele>-16</ele>
        <time>2013-10-26T08:08:51Z</time>
      </trkpt>
      <trkpt lat="43.97209" lon="4.89991">
        <ele>-34</ele>
        <time>2013-10-26T08:09:22Z</time>
      </trkpt>
      <trkpt lat="43.96966" lon="4.90029">
        <ele>-34</ele>
        <time>2013-10-26T08:09:52Z</time>
      </trkpt>
      <trkpt lat="43.96788" lon="4.89999">
        <ele>-34</ele>
        <time>2013-10-26T08:10:23Z</time>
      </trkpt>
      <trkpt lat="43.96764" lon="4.90186">
        <ele>-34</ele>
        <time>2013-10-26T08:10:53Z</time>
      </trkpt>
      <trkpt lat="43.96654" lon="4.90355">
        <ele>-31</ele>
        <time>2013-10-26T08:11:23Z</time>
      </trkpt>
      <trkpt lat="43.96669" lon="4.90564">
        <ele>-31</ele>
        <time>2013-10-26T08:11:53Z</time>
      </trkpt>
      <trkpt lat="43.967" lon="4.90746">
        <ele>-22</ele>
        <time>2013-10-26T08:12:24Z</time>
      </trkpt>
      <trkpt lat="43.96727" lon="4.90905">
        <ele>-20</ele>
        <time>2013-10-26T08:12:54Z</time>
      </trkpt>
      <trkpt lat="43.96771" lon="4.91104">
        <ele>-20</ele>
        <time>2013-10-26T08:13:25Z</time>
      </trkpt>
      <trkpt lat="43.96807" lon="4.91302">
        <ele>-16</ele>
        <time>2013-10-26T08:13:55Z</time>
      </trkpt>
      <trkpt lat="43.96851" lon="4.91532">
        <ele>-16</ele>
        <time>2013-10-26T08:14:25Z</time>
      </trkpt>
      <trkpt lat="43.96898" lon="4.91735">
        <ele>-16</ele>
        <time>2013-10-26T08:14:55Z</time>
      </trkpt>
      <trkpt lat="43.96803" lon="4.91748">
        <ele>-12</ele>
        <time>2013-10-26T08:15:26Z</time>
      </trkpt>
      <trkpt lat="43.9674" lon="4.91698">
        <ele>-5</ele>
        <time>2013-10-26T08:15:56Z</time>
      </trkpt>
      <trkpt lat="43.96685" lon="4.91653">
        <ele>-1</ele>
        <time>2013-10-26T08:16:26Z</time>
      </trkpt>
      <trkpt lat="43.96625" lon="4.91606">
        <ele>-1</ele>
        <time>2013-10-26T08:16:56Z</time>
      </trkpt>
      <trkpt lat="43.96528" lon="4.916">
        <ele>-2</ele>
        <time>2013-10-26T08:17:27Z</time>
      </trkpt>
      <trkpt lat="43.96441" lon="4.91614">
        <ele>3</ele>
        <time>2013-10-26T08:17:57Z</time>
      </trkpt>
      <trkpt lat="43.96357" lon="4.91626">
        <ele>3</ele>
        <time>2013-10-26T08:18:27Z</time>
      </trkpt>
      <trkpt lat="43.96302" lon="4.91633">
        <ele>8</ele>
        <time>2013-10-26T08:18:58Z</time>
      </trkpt>
      <trkpt lat="43.96267" lon="4.91637">
        <ele>18</ele>
        <time>2013-10-26T08:19:28Z</time>
      </trkpt>
      <trkpt lat="43.96236" lon="4.91639">
        <ele>23</ele>
        <time>2013-10-26T08:19:58Z</time>
      </trkpt>
      <trkpt lat="43.96206" lon="4.91654">
        <ele>27</ele>
        <time>2013-10-26T08:20:29Z</time>
      </trkpt>
      <trkpt lat="43.96186" lon="4.91677">
        <ele>32</ele>
        <time>2013-10-26T08:20:59Z</time>
      </trkpt>
      <trkpt lat="43.9617" lon="4.91697">
        <ele>36</ele>
        <time>2013-10-26T08:21:30Z</time>
      </trkpt>
      <trkpt lat="43.96152" lon="4.9172">
        <ele>40</ele>
        <time>2013-10-26T08:22:00Z</time>
      </trkpt>
      <trkpt lat="43.96131" lon="4.91751">
        <ele>45</ele>
        <time>2013-10-26T08:22:31Z</time>
      </trkpt>
      <trkpt lat="43.96047" lon="4.91788">
        <ele>48</ele>
        <time>2013-10-26T08:23:01Z</time>
      </trkpt>
      <trkpt lat="43.95963" lon="4.91678">
        <ele>33</ele>
        <time>2013-10-26T08:23:31Z</time>
      </trkpt>
      <trkpt lat="43.95941" lon="4.91797">
        <ele>28</ele>
        <time>2013-10-26T08:24:02Z</time>
      </trkpt>
      <trkpt lat="43.95916" lon="4.91913">
        <ele>36</ele>
        <time>2013-10-26T08:24:32Z</time>
      </trkpt>
      <trkpt lat="43.95884" lon="4.91982">
        <ele>40</ele>
        <time>2013-10-26T08:25:03Z</time>
      </trkpt>
      <trkpt lat="43.95831" lon="4.92019">
        <ele>45</ele>
        <time>2013-10-26T08:25:33Z</time>
      </trkpt>
      <trkpt lat="43.95741" lon="4.9208">
        <ele>45</ele>
        <time>2013-10-26T08:26:03Z</time>
      </trkpt>
      <trkpt lat="43.95634" lon="4.92116">
        <ele>43</ele>
        <time>2013-10-26T08:26:33Z</time>
      </trkpt>
      <trkpt lat="43.95599" lon="4.91994">
        <ele>41</ele>
        <time>2013-10-26T08:27:04Z</time>
      </trkpt>
      <trkpt lat="43.95418" lon="4.91948">
        <ele>22</ele>
        <time>2013-10-26T08:27:34Z</time>
      </trkpt>
      <trkpt lat="43.95375" lon="4.92131">
        <ele>22</ele>
        <time>2013-10-26T08:28:05Z</time>
      </trkpt>
      <trkpt lat="43.95256" lon="4.92154">
        <ele>15</ele>
        <time>2013-10-26T08:28:34Z</time>
      </trkpt>
      <trkpt lat="43.95135" lon="4.92194">
        <ele>20</ele>
        <time>2013-10-26T08:29:04Z</time>
      </trkpt>
      <trkpt lat="43.95061" lon="4.92208">
        <ele>26</ele>
        <time>2013-10-26T08:29:35Z</time>
      </trkpt>
      <trkpt lat="43.95007" lon="4.9221">
        <ele>31</ele>
        <time>2013-10-26T08:30:05Z</time>
      </trkpt>
      <trkpt lat="43.94984" lon="4.92147">
        <ele>35</ele>
        <time>2013-10-26T08:30:35Z</time>
      </trkpt>
      <trkpt lat="43.94986" lon="4.92053">
        <ele>35</ele>
        <time>2013-10-26T08:31:06Z</time>
      </trkpt>
      <trkpt lat="43.95005" lon="4.91965">
        <ele>35</ele>
        <time>2013-10-26T08:31:36Z</time>
      </trkpt>
      <trkpt lat="43.94984" lon="4.91933">
        <ele>32</ele>
        <time>2013-10-26T08:32:06Z</time>
      </trkpt>
      <trkpt lat="43.94941" lon="4.91919">
        <ele>32</ele>
        <time>2013-10-26T08:32:37Z</time>
      </trkpt>
      <trkpt lat="43.94904" lon="4.91908">
        <ele>37</ele>
        <time>2013-10-26T08:33:07Z</time>
      </trkpt>
      <trkpt lat="43.94887" lon="4.91927">
        <ele>43</ele>
        <time>2013-10-26T08:33:38Z</time>
      </trkpt>
      <trkpt lat="43.94807" lon="4.91934">
        <ele>42</ele>
        <time>2013-10-26T08:34:08Z</time>
      </trkpt>
      <trkpt lat="43.94725" lon="4.9197">
        <ele>42</ele>
        <time>2013-10-26T08:34:38Z</time>
      </trkpt>
      <trkpt lat="43.94637" lon="4.92025">
        <ele>26</ele>
        <time>2013-10-26T08:35:09Z</time>
      </trkpt>
      <trkpt lat="43.94574" lon="4.92066">
        <ele>38</ele>
        <time>2013-10-26T08:35:39Z</time>
      </trkpt>
      <trkpt lat="43.94513" lon="4.92006">
        <ele>28</ele>
        <time>2013-10-26T08:36:10Z</time>
      </trkpt>
      <trkpt lat="43.94468" lon="4.91902">
        <ele>18</ele>
        <time>2013-10-26T08:36:40Z</time>
      </trkpt>
      <trkpt lat="43.94445" lon="4.91949">
        <ele>20</ele>
        <time>2013-10-26T08:37:10Z</time>
      </trkpt>
      <trkpt lat="43.94445" lon="4.91983">
        <ele>26</ele>
        <time>2013-10-26T08:37:40Z</time>
      </trkpt>
      <trkpt lat="43.94452" lon="4.92016">
        <ele>31</ele>
        <time>2013-10-26T08:38:11Z</time>
      </trkpt>
      <trkpt lat="43.94455" lon="4.92035">
        <ele>31</ele>
        <time>2013-10-26T08:38:41Z</time>
      </trkpt>
      <trkpt lat="43.94434" lon="4.92043">
        <ele>36</ele>
        <time>2013-10-26T08:39:12Z</time>
      </trkpt>
      <trkpt lat="43.94365" lon="4.92046">
        <ele>40</ele>
        <time>2013-10-26T08:39:42Z</time>
      </trkpt>
      <trkpt lat="43.94299" lon="4.92034">
        <ele>36</ele>
        <time>2013-10-26T08:40:13Z</time>
      </trkpt>
      <trkpt lat="43.94288" lon="4.92028">
        <ele>29</ele>
        <time>2013-10-26T08:40:43Z</time>
      </trkpt>
      <trkpt lat="43.94267" lon="4.92055">
        <ele>33</ele>
        <time>2013-10-26T08:41:13Z</time>
      </trkpt>
      <trkpt lat="43.94228" lon="4.92073">
        <ele>33</ele>
        <time>2013-10-26T08:41:44Z</time>
      </trkpt>
      <trkpt lat="43.94183" lon="4.92077">
        <ele>28</ele>
        <time>2013-10-26T08:42:14Z</time>
      </trkpt>
      <trkpt lat="43.94161" lon="4.92105">
        <ele>33</ele>
        <time>2013-10-26T08:42:44Z</time>
      </trkpt>
      <trkpt lat="43.94118" lon="4.92099">
        <ele>28</ele>
        <time>2013-10-26T08:43:15Z</time>
      </trkpt>
      <trkpt lat="43.94088" lon="4.92105">
        <ele>34</ele>
        <time>2013-10-26T08:43:45Z</time>
      </trkpt>
      <trkpt lat="43.94047" lon="4.92101">
        <ele>28</ele>
        <time>2013-10-26T08:44:15Z</time>
      </trkpt>
      <trkpt lat="43.94009" lon="4.92102">
        <ele>30</ele>
        <time>2013-10-26T08:44:46Z</time>
      </trkpt>
      <trkpt lat="43.93962" lon="4.92092">
        <ele>30</ele>
        <time>2013-10-26T08:45:16Z</time>
      </trkpt>
      <trkpt lat="43.93908" lon="4.92065">
        <ele>30</ele>
        <time>2013-10-26T08:45:46Z</time>
      </trkpt>
      <trkpt lat="43.93889" lon="4.92068">
        <ele>30</ele>
        <time>2013-10-26T08:46:17Z</time>
      </trkpt>
      <trkpt lat="43.93885" lon="4.9208">
        <ele>32</ele>
        <time>2013-10-26T08:46:47Z</time>
      </trkpt>
      <trkpt lat="43.93878" lon="4.92144">
        <ele>36</ele>
        <time>2013-10-26T08:47:17Z</time>
      </trkpt>
      <trkpt lat="43.93849" lon="4.92193">
        <ele>36</ele>
        <time>2013-10-26T08:47:48Z</time>
      </trkpt>
      <trkpt lat="43.93811" lon="4.92252">
        <ele>41</ele>
        <time>2013-10-26T08:48:18Z</time>
      </trkpt>
      <trkpt lat="43.93728" lon="4.92273">
        <ele>31</ele>
        <time>2013-10-26T08:48:49Z</time>
      </trkpt>
      <trkpt lat="43.93646" lon="4.92278">
        <ele>38</ele>
        <time>2013-10-26T08:49:19Z</time>
      </trkpt>
      <trkpt lat="43.93595" lon="4.92252">
        <ele>43</ele>
        <time>2013-10-26T08:49:49Z</time>
      </trkpt>
      <trkpt lat="43.93569" lon="4.92278">
        <ele>43</ele>
        <time>2013-10-26T08:50:19Z</time>
      </trkpt>
      <trkpt lat="43.93513" lon="4.9233">
        <ele>43</ele>
        <time>2013-10-26T08:50:50Z</time>
      </trkpt>
      <trkpt lat="43.93462" lon="4.92359">
        <ele>39</ele>
        <time>2013-10-26T08:51:20Z</time>
      </trkpt>
      <trkpt lat="43.93429" lon="4.92363">
        <ele>39</ele>
        <time>2013-10-26T08:51:50Z</time>
      </trkpt>
      <trkpt lat="43.93374" lon="4.92364">
        <ele>37</ele>
        <time>2013-10-26T08:52:21Z</time>
      </trkpt>
      <trkpt lat="43.93307" lon="4.9242">
        <ele>41</ele>
        <time>2013-10-26T08:52:51Z</time>
      </trkpt>
      <trkpt lat="43.93179" lon="4.92405">
        <ele>41</ele>
        <time>2013-10-26T08:53:21Z</time>
      </trkpt>
      <trkpt lat="43.93173" lon="4.92534">
        <ele>42</ele>
        <time>2013-10-26T08:53:52Z</time>
      </trkpt>
      <trkpt lat="43.93114" lon="4.924">
        <ele>42</ele>
        <time>2013-10-26T08:54:22Z</time>
      </trkpt>
      <trkpt lat="43.92987" lon="4.92361">
        <ele>41</ele>
        <time>2013-10-26T08:54:52Z</time>
      </trkpt>
      <trkpt lat="43.92847" lon="4.92323">
        <ele>42</ele>
        <time>2013-10-26T08:55:22Z</time>
      </trkpt>
      <trkpt lat="43.92707" lon="4.92276">
        <ele>42</ele>
        <time>2013-10-26T08:55:52Z</time>
      </trkpt>
      <trkpt lat="43.92622" lon="4.92205">
        <ele>42</ele>
        <time>2013-10-26T08:56:23Z</time>
      </trkpt>
      <trkpt lat="43.92537" lon="4.92168">
        <ele>38</ele>
        <time>2013-10-26T08:56:53Z</time>
      </trkpt>
      <trkpt lat="43.92437" lon="4.92149">
        <ele>35</ele>
        <time>2013-10-26T08:57:23Z</time>
      </trkpt>
      <trkpt lat="43.92338" lon="4.92098">
        <ele>40</ele>
        <time>2013-10-26T08:57:54Z</time>
      </trkpt>
      <trkpt lat="43.92284" lon="4.92045">
        <ele>38</ele>
        <time>2013-10-26T08:58:24Z</time>
      </trkpt>
      <trkpt lat="43.92225" lon="4.92005">
        <ele>38</ele>
        <time>2013-10-26T08:58:55Z</time>
      </trkpt>
      <trkpt lat="43.92224" lon="4.91907">
        <ele>29</ele>
        <time>2013-10-26T08:59:25Z</time>
      </trkpt>
      <trkpt lat="43.92203" lon="4.91881">
        <ele>29</ele>
        <time>2013-10-26T08:59:55Z</time>
      </trkpt>
      <trkpt lat="43.92157" lon="4.91837">
        <ele>21</ele>
        <time>2013-10-26T09:00:25Z</time>
      </trkpt>
      <trkpt lat="43.92093" lon="4.91879">
        <ele>25</ele>
        <time>2013-10-26T09:00:56Z</time>
      </trkpt>
      <trkpt lat="43.92046" lon="4.91898">
        <ele>29</ele>
        <time>2013-10-26T09:01:26Z</time>
      </trkpt>
      <trkpt lat="43.9206" lon="4.91919">
        <ele>29</ele>
        <time>2013-10-26T09:01:57Z</time>
      </trkpt>
      <trkpt lat="43.92017" lon="4.91929">
        <ele>27</ele>
        <time>2013-10-26T09:02:27Z</time>
      </trkpt>
      <trkpt lat="43.91976" lon="4.91925">
        <ele>27</ele>
        <time>2013-10-26T09:02:57Z</time>
      </trkpt>
      <trkpt lat="43.91948" lon="4.91921">
        <ele>31</ele>
        <time>2013-10-26T09:03:27Z</time>
      </trkpt>
      <trkpt lat="43.91948" lon="4.91889">
        <ele>31</ele>
        <time>2013-10-26T09:03:58Z</time>
      </trkpt>
      <trkpt lat="43.91962" lon="4.91854">
        <ele>27</ele>
        <time>2013-10-26T09:04:28Z</time>
      </trkpt>
      <trkpt lat="43.91954" lon="4.9183">
        <ele>27</ele>
        <time>2013-10-26T09:04:58Z</time>
      </trkpt>
      <trkpt lat="43.92006" lon="4.91805">
        <ele>22</ele>
        <time>2013-10-26T09:05:28Z</time>
      </trkpt>
      <trkpt lat="43.9197" lon="4.91794">
        <ele>22</ele>
        <time>2013-10-26T09:05:59Z</time>
      </trkpt>
      <trkpt lat="43.91924" lon="4.91807">
        <ele>27</ele>
        <time>2013-10-26T09:06:29Z</time>
      </trkpt>
      <trkpt lat="43.91913" lon="4.91877">
        <ele>35</ele>
        <time>2013-10-26T09:06:59Z</time>
      </trkpt>
      <trkpt lat="43.91862" lon="4.9186">
        <ele>35</ele>
        <time>2013-10-26T09:07:30Z</time>
      </trkpt>
      <trkpt lat="43.91818" lon="4.91848">
        <ele>35</ele>
        <time>2013-10-26T09:08:00Z</time>
      </trkpt>
      <trkpt lat="43.91796" lon="4.91869">
        <ele>39</ele>
        <time>2013-10-26T09:08:30Z</time>
      </trkpt>
      <trkpt lat="43.91793" lon="4.91927">
        <ele>44</ele>
        <time>2013-10-26T09:09:01Z</time>
      </trkpt>
      <trkpt lat="43.91806" lon="4.92017">
        <ele>44</ele>
        <time>2013-10-26T09:09:31Z</time>
      </trkpt>
      <trkpt lat="43.91801" lon="4.92106">
        <ele>42</ele>
        <time>2013-10-26T09:10:01Z</time>
      </trkpt>
      <trkpt lat="43.91828" lon="4.92189">
        <ele>44</ele>
        <time>2013-10-26T09:10:31Z</time>
      </trkpt>
      <trkpt lat="43.91849" lon="4.92253">
        <ele>30</ele>
        <time>2013-10-26T09:11:02Z</time>
      </trkpt>
      <trkpt lat="43.91911" lon="4.9234">
        <ele>20</ele>
        <time>2013-10-26T09:11:32Z</time>
      </trkpt>
      <trkpt lat="43.91912" lon="4.92394">
        <ele>15</ele>
        <time>2013-10-26T09:12:02Z</time>
      </trkpt>
      <trkpt lat="43.91979" lon="4.92498">
        <ele>16</ele>
        <time>2013-10-26T09:12:33Z</time>
      </trkpt>
      <trkpt lat="43.92008" lon="4.92716">
        <ele>3</ele>
        <time>2013-10-26T09:13:03Z</time>
      </trkpt>
      <trkpt lat="43.91878" lon="4.92746">
        <ele>-2</ele>
        <time>2013-10-26T09:13:33Z</time>
      </trkpt>
      <trkpt lat="43.91709" lon="4.92662">
        <ele>-2</ele>
        <time>2013-10-26T09:14:04Z</time>
      </trkpt>
      <trkpt lat="43.91639" lon="4.92671">
        <ele>-6</ele>
        <time>2013-10-26T09:14:34Z</time>
      </trkpt>
      <trkpt lat="43.91698" lon="4.92793">
        <ele>-1</ele>
        <time>2013-10-26T09:15:04Z</time>
      </trkpt>
      <trkpt lat="43.9175" lon="4.92898">
        <ele>-1</ele>
        <time>2013-10-26T09:15:34Z</time>
      </trkpt>
      <trkpt lat="43.91791" lon="4.93013">
        <ele>3</ele>
        <time>2013-10-26T09:16:05Z</time>
      </trkpt>
      <trkpt lat="43.91833" lon="4.93127">
        <ele>8</ele>
        <time>2013-10-26T09:16:35Z</time>
      </trkpt>
      <trkpt lat="43.91866" lon="4.93248">
        <ele>8</ele>
        <time>2013-10-26T09:17:06Z</time>
      </trkpt>
      <trkpt lat="43.91889" lon="4.93365">
        <ele>13</ele>
        <time>2013-10-26T09:17:36Z</time>
      </trkpt>
      <trkpt lat="43.91862" lon="4.93407">
        <ele>20</ele>
        <time>2013-10-26T09:18:06Z</time>
      </trkpt>
      <trkpt lat="43.91798" lon="4.93394">
        <ele>20</ele>
        <time>2013-10-26T09:18:37Z</time>
      </trkpt>
      <trkpt lat="43.91745" lon="4.93353">
        <ele>24</ele>
        <time>2013-10-26T09:19:07Z</time>
      </trkpt>
      <trkpt lat="43.91684" lon="4.93271">
        <ele>24</ele>
        <time>2013-10-26T09:19:38Z</time>
      </trkpt>
      <trkpt lat="43.91628" lon="4.93179">
        <ele>27</ele>
        <time>2013-10-26T09:20:08Z</time>
      </trkpt>
      <trkpt lat="43.91566" lon="4.93091">
        <ele>27</ele>
        <time>2013-10-26T09:20:38Z</time>
      </trkpt>
      <trkpt lat="43.91532" lon="4.93148">
        <ele>32</ele>
        <time>2013-10-26T09:21:08Z</time>
      </trkpt>
      <trkpt lat="43.91506" lon="4.93186">
        <ele>36</ele>
        <time>2013-10-26T09:21:39Z</time>
      </trkpt>
      <trkpt lat="43.91483" lon="4.93223">
        <ele>41</ele>
        <time>2013-10-26T09:22:10Z</time>
      </trkpt>
      <trkpt lat="43.91465" lon="4.9327">
        <ele>45</ele>
        <time>2013-10-26T09:22:40Z</time>
      </trkpt>
      <trkpt lat="43.91433" lon="4.93319">
        <ele>45</ele>
        <time>2013-10-26T09:23:10Z</time>
      </trkpt>
      <trkpt lat="43.91393" lon="4.93368">
        <ele>49</ele>
        <time>2013-10-26T09:23:41Z</time>
      </trkpt>
      <trkpt lat="43.91307" lon="4.93347">
        <ele>49</ele>
        <time>2013-10-26T09:24:11Z</time>
      </trkpt>
      <trkpt lat="43.91207" lon="4.93294">
        <ele>49</ele>
        <time>2013-10-26T09:24:41Z</time>
      </trkpt>
      <trkpt lat="43.91103" lon="4.93229">
        <ele>49</ele>
        <time>2013-10-26T09:25:12Z</time>
      </trkpt>
      <trkpt lat="43.91039" lon="4.93235">
        <ele>53</ele>
        <time>2013-10-26T09:25:42Z</time>
      </trkpt>
      <trkpt lat="43.91008" lon="4.93257">
        <ele>52</ele>
        <time>2013-10-26T09:26:12Z</time>
      </trkpt>
      <trkpt lat="43.90983" lon="4.93203">
        <ele>52</ele>
        <time>2013-10-26T09:26:42Z</time>
      </trkpt>
      <trkpt lat="43.90985" lon="4.93152">
        <ele>52</ele>
        <time>2013-10-26T09:27:12Z</time>
      </trkpt>
      <trkpt lat="43.90939" lon="4.93139">
        <ele>52</ele>
        <time>2013-10-26T09:27:42Z</time>
      </trkpt>
      <trkpt lat="43.90878" lon="4.93202">
        <ele>52</ele>
        <time>2013-10-26T09:28:13Z</time>
      </trkpt>
      <trkpt lat="43.90777" lon="4.93208">
        <ele>51</ele>
        <time>2013-10-26T09:28:43Z</time>
      </trkpt>
      <trkpt lat="43.90615" lon="4.93136">
        <ele>47</ele>
        <time>2013-10-26T09:29:13Z</time>
      </trkpt>
      <trkpt lat="43.90463" lon="4.93026">
        <ele>47</ele>
        <time>2013-10-26T09:29:44Z</time>
      </trkpt>
      <trkpt lat="43.90355" lon="4.92952">
        <ele>47</ele>
        <time>2013-10-26T09:30:14Z</time>
      </trkpt>
      <trkpt lat="43.90226" lon="4.93132">
        <ele>45</ele>
        <time>2013-10-26T09:30:44Z</time>
      </trkpt>
      <trkpt lat="43.90113" lon="4.93277">
        <ele>49</ele>
        <time>2013-10-26T09:31:15Z</time>
      </trkpt>
      <trkpt lat="43.90071" lon="4.93137">
        <ele>49</ele>
        <time>2013-10-26T09:31:45Z</time>
      </trkpt>
      <trkpt lat="43.8997" lon="4.93042">
        <ele>41</ele>
        <time>2013-10-26T09:32:15Z</time>
      </trkpt>
      <trkpt lat="43.89886" lon="4.9294">
        <ele>34</ele>
        <time>2013-10-26T09:32:45Z</time>
      </trkpt>
      <trkpt lat="43.89875" lon="4.9281">
        <ele>12</ele>
        <time>2013-10-26T09:33:16Z</time>
      </trkpt>
      <trkpt lat="43.8978" lon="4.92707">
        <ele>9</ele>
        <time>2013-10-26T09:33:46Z</time>
      </trkpt>
      <trkpt lat="43.89684" lon="4.9271">
        <ele>9</ele>
        <time>2013-10-26T09:34:16Z</time>
      </trkpt>
      <trkpt lat="43.8971" lon="4.9271">
        <ele>13</ele>
        <time>2013-10-26T09:34:47Z</time>
      </trkpt>
      <trkpt lat="43.89734" lon="4.9275">
        <ele>17</ele>
        <time>2013-10-26T09:35:17Z</time>
      </trkpt>
      <trkpt lat="43.89767" lon="4.92779">
        <ele>21</ele>
        <time>2013-10-26T09:35:48Z</time>
      </trkpt>
      <trkpt lat="43.89803" lon="4.92822">
        <ele>25</ele>
        <time>2013-10-26T09:36:19Z</time>
      </trkpt>
      <trkpt lat="43.89809" lon="4.92861">
        <ele>25</ele>
        <time>2013-10-26T09:36:49Z</time>
      </trkpt>
      <trkpt lat="43.89802" lon="4.92895">
        <ele>33</ele>
        <time>2013-10-26T09:37:20Z</time>
      </trkpt>
      <trkpt lat="43.89805" lon="4.92932">
        <ele>39</ele>
        <time>2013-10-26T09:37:51Z</time>
      </trkpt>
      <trkpt lat="43.89796" lon="4.92962">
        <ele>43</ele>
        <time>2013-10-26T09:38:21Z</time>
      </trkpt>
      <trkpt lat="43.89772" lon="4.92946">
        <ele>43</ele>
        <time>2013-10-26T09:38:51Z</time>
      </trkpt>
      <trkpt lat="43.89756" lon="4.9292">
        <ele>49</ele>
        <time>2013-10-26T09:39:22Z</time>
      </trkpt>
      <trkpt lat="43.89719" lon="4.92923">
        <ele>49</ele>
        <time>2013-10-26T09:39:53Z</time>
      </trkpt>
      <trkpt lat="43.89669" lon="4.92914">
        <ele>49</ele>
        <time>2013-10-26T09:40:23Z</time>
      </trkpt>
      <trkpt lat="43.89648" lon="4.92923">
        <ele>49</ele>
        <time>2013-10-26T09:40:54Z</time>
      </trkpt>
      <trkpt lat="43.89614" lon="4.92927">
        <ele>40</ele>
        <time>2013-10-26T09:41:24Z</time>
      </trkpt>
      <trkpt lat="43.89594" lon="4.92912">
        <ele>46</ele>
        <time>2013-10-26T09:41:54Z</time>
      </trkpt>
      <trkpt lat="43.89558" lon="4.92875">
        <ele>46</ele>
        <time>2013-10-26T09:42:25Z</time>
      </trkpt>
      <trkpt lat="43.89501" lon="4.92841">
        <ele>46</ele>
        <time>2013-10-26T09:42:55Z</time>
      </trkpt>
      <trkpt lat="43.89434" lon="4.92801">
        <ele>49</ele>
        <time>2013-10-26T09:43:26Z</time>
      </trkpt>
      <trkpt lat="43.89366" lon="4.92812">
        <ele>49</ele>
        <time>2013-10-26T09:43:56Z</time>
      </trkpt>
      <trkpt lat="43.89339" lon="4.92862">
        <ele>53</ele>
        <time>2013-10-26T09:44:27Z</time>
      </trkpt>
      <trkpt lat="43.89264" lon="4.92887">
        <ele>53</ele>
        <time>2013-10-26T09:44:57Z</time>
      </trkpt>
      <trkpt lat="43.89212" lon="4.92798">
        <ele>53</ele>
        <time>2013-10-26T09:45:28Z</time>
      </trkpt>
      <trkpt lat="43.89179" lon="4.92693">
        <ele>53</ele>
        <time>2013-10-26T09:45:58Z</time>
      </trkpt>
      <trkpt lat="43.89172" lon="4.92682">
        <ele>53</ele>
        <time>2013-10-26T09:46:28Z</time>
      </trkpt>
      <trkpt lat="43.89174" lon="4.92682">
        <ele>53</ele>
        <time>2013-10-26T09:46:58Z</time>
      </trkpt>
      <trkpt lat="43.89175" lon="4.92682">
        <ele>53</ele>
        <time>2013-10-26T09:47:28Z</time>
      </trkpt>
      <trkpt lat="43.89177" lon="4.92683">
        <ele>53</ele>
        <time>2013-10-26T09:47:59Z</time>
      </trkpt>
      <trkpt lat="43.8918" lon="4.92683">
        <ele>53</ele>
        <time>2013-10-26T09:48:29Z</time>
      </trkpt>
      <trkpt lat="43.89154" lon="4.92646">
        <ele>54</ele>
        <time>2013-10-26T09:49:00Z</time>
      </trkpt>
      <trkpt lat="43.89098" lon="4.92713">
        <ele>47</ele>
        <time>2013-10-26T09:49:30Z</time>
      </trkpt>
      <trkpt lat="43.89154" lon="4.92791">
        <ele>47</ele>
        <time>2013-10-26T09:50:00Z</time>
      </trkpt>
      <trkpt lat="43.89216" lon="4.9288">
        <ele>47</ele>
        <time>2013-10-26T09:50:30Z</time>
      </trkpt>
      <trkpt lat="43.89261" lon="4.93012">
        <ele>44</ele>
        <time>2013-10-26T09:51:01Z</time>
      </trkpt>
      <trkpt lat="43.89341" lon="4.93111">
        <ele>44</ele>
        <time>2013-10-26T09:51:31Z</time>
      </trkpt>
      <trkpt lat="43.89334" lon="4.93222">
        <ele>37</ele>
        <time>2013-10-26T09:52:01Z</time>
      </trkpt>
      <trkpt lat="43.89361" lon="4.93281">
        <ele>51</ele>
        <time>2013-10-26T09:52:31Z</time>
      </trkpt>
      <trkpt lat="43.89442" lon="4.93306">
        <ele>51</ele>
        <time>2013-10-26T09:53:02Z</time>
      </trkpt>
      <trkpt lat="43.89515" lon="4.93298">
        <ele>53</ele>
        <time>2013-10-26T09:53:32Z</time>
      </trkpt>
      <trkpt lat="43.89602" lon="4.93342">
        <ele>52</ele>
        <time>2013-10-26T09:54:02Z</time>
      </trkpt>
      <trkpt lat="43.89706" lon="4.9336">
        <ele>63</ele>
        <time>2013-10-26T09:54:33Z</time>
      </trkpt>
      <trkpt lat="43.89791" lon="4.93396">
        <ele>46</ele>
        <time>2013-10-26T09:55:03Z</time>
      </trkpt>
      <trkpt lat="43.89894" lon="4.93356">
        <ele>55</ele>
        <time>2013-10-26T09:55:33Z</time>
      </trkpt>
      <trkpt lat="43.90011" lon="4.93323">
        <ele>58</ele>
        <time>2013-10-26T09:56:03Z</time>
      </trkpt>
      <trkpt lat="43.90125" lon="4.93266">
        <ele>51</ele>
        <time>2013-10-26T09:56:33Z</time>
      </trkpt>
      <trkpt lat="43.90251" lon="4.93086">
        <ele>47</ele>
        <time>2013-10-26T09:57:04Z</time>
      </trkpt>
      <trkpt lat="43.9038" lon="4.92937">
        <ele>47</ele>
        <time>2013-10-26T09:57:35Z</time>
      </trkpt>
      <trkpt lat="43.90498" lon="4.93074">
        <ele>49</ele>
        <time>2013-10-26T09:58:04Z</time>
      </trkpt>
      <trkpt lat="43.90642" lon="4.93157">
        <ele>49</ele>
        <time>2013-10-26T09:58:35Z</time>
      </trkpt>
      <trkpt lat="43.90798" lon="4.93222">
        <ele>49</ele>
        <time>2013-10-26T09:59:05Z</time>
      </trkpt>
      <trkpt lat="43.90901" lon="4.93342">
        <ele>49</ele>
        <time>2013-10-26T09:59:36Z</time>
      </trkpt>
      <trkpt lat="43.9103" lon="4.93445">
        <ele>51</ele>
        <time>2013-10-26T10:00:06Z</time>
      </trkpt>
      <trkpt lat="43.91139" lon="4.9355">
        <ele>51</ele>
        <time>2013-10-26T10:00:36Z</time>
      </trkpt>
      <trkpt lat="43.91123" lon="4.93728">
        <ele>54</ele>
        <time>2013-10-26T10:01:07Z</time>
      </trkpt>
      <trkpt lat="43.91127" lon="4.93853">
        <ele>49</ele>
        <time>2013-10-26T10:01:37Z</time>
      </trkpt>
      <trkpt lat="43.91158" lon="4.93955">
        <ele>35</ele>
        <time>2013-10-26T10:02:07Z</time>
      </trkpt>
      <trkpt lat="43.91198" lon="4.93992">
        <ele>25</ele>
        <time>2013-10-26T10:02:38Z</time>
      </trkpt>
      <trkpt lat="43.91192" lon="4.93946">
        <ele>22</ele>
        <time>2013-10-26T10:03:08Z</time>
      </trkpt>
      <trkpt lat="43.91209" lon="4.93893">
        <ele>32</ele>
        <time>2013-10-26T10:03:39Z</time>
      </trkpt>
      <trkpt lat="43.91233" lon="4.93848">
        <ele>32</ele>
        <time>2013-10-26T10:04:09Z</time>
      </trkpt>
      <trkpt lat="43.91299" lon="4.9385">
        <ele>32</ele>
        <time>2013-10-26T10:04:39Z</time>
      </trkpt>
      <trkpt lat="43.9134" lon="4.93857">
        <ele>24</ele>
        <time>2013-10-26T10:05:10Z</time>
      </trkpt>
      <trkpt lat="43.91341" lon="4.93827">
        <ele>29</ele>
        <time>2013-10-26T10:05:41Z</time>
      </trkpt>
      <trkpt lat="43.91374" lon="4.93862">
        <ele>23</ele>
        <time>2013-10-26T10:06:11Z</time>
      </trkpt>
      <trkpt lat="43.91415" lon="4.93855">
        <ele>19</ele>
        <time>2013-10-26T10:06:42Z</time>
      </trkpt>
      <trkpt lat="43.9143" lon="4.93815">
        <ele>27</ele>
        <time>2013-10-26T10:07:12Z</time>
      </trkpt>
      <trkpt lat="43.91475" lon="4.93819">
        <ele>27</ele>
        <time>2013-10-26T10:07:44Z</time>
      </trkpt>
      <trkpt lat="43.91524" lon="4.93824">
        <ele>31</ele>
        <time>2013-10-26T10:08:14Z</time>
      </trkpt>
      <trkpt lat="43.91539" lon="4.93908">
        <ele>27</ele>
        <time>2013-10-26T10:08:44Z</time>
      </trkpt>
      <trkpt lat="43.91581" lon="4.93902">
        <ele>27</ele>
        <time>2013-10-26T10:09:15Z</time>
      </trkpt>
      <trkpt lat="43.91627" lon="4.93922">
        <ele>31</ele>
        <time>2013-10-26T10:09:45Z</time>
      </trkpt>
      <trkpt lat="43.9167" lon="4.93932">
        <ele>39</ele>
        <time>2013-10-26T10:10:15Z</time>
      </trkpt>
      <trkpt lat="43.91669" lon="4.939">
        <ele>39</ele>
        <time>2013-10-26T10:10:46Z</time>
      </trkpt>
      <trkpt lat="43.9169" lon="4.93909">
        <ele>44</ele>
        <time>2013-10-26T10:11:17Z</time>
      </trkpt>
      <trkpt lat="43.91719" lon="4.9388">
        <ele>48</ele>
        <time>2013-10-26T10:11:47Z</time>
      </trkpt>
      <trkpt lat="43.91767" lon="4.93819">
        <ele>48</ele>
        <time>2013-10-26T10:12:18Z</time>
      </trkpt>
      <trkpt lat="43.91899" lon="4.93877">
        <ele>43</ele>
        <time>2013-10-26T10:12:48Z</time>
      </trkpt>
      <trkpt lat="43.92115" lon="4.93841">
        <ele>37</ele>
        <time>2013-10-26T10:13:18Z</time>
      </trkpt>
      <trkpt lat="43.9231" lon="4.93828">
        <ele>36</ele>
        <time>2013-10-26T10:13:48Z</time>
      </trkpt>
      <trkpt lat="43.92416" lon="4.93818">
        <ele>40</ele>
        <time>2013-10-26T10:14:19Z</time>
      </trkpt>
      <trkpt lat="43.92546" lon="4.93827">
        <ele>40</ele>
        <time>2013-10-26T10:14:49Z</time>
      </trkpt>
      <trkpt lat="43.92696" lon="4.93817">
        <ele>40</ele>
        <time>2013-10-26T10:15:20Z</time>
      </trkpt>
      <trkpt lat="43.92841" lon="4.93839">
        <ele>40</ele>
        <time>2013-10-26T10:15:50Z</time>
      </trkpt>
      <trkpt lat="43.92896" lon="4.94076">
        <ele>43</ele>
        <time>2013-10-26T10:16:21Z</time>
      </trkpt>
      <trkpt lat="43.92984" lon="4.94221">
        <ele>43</ele>
        <time>2013-10-26T10:16:51Z</time>
      </trkpt>
      <trkpt lat="43.93062" lon="4.94159">
        <ele>43</ele>
        <time>2013-10-26T10:17:21Z</time>
      </trkpt>
      <trkpt lat="43.93183" lon="4.94037">
        <ele>43</ele>
        <time>2013-10-26T10:17:51Z</time>
      </trkpt>
      <trkpt lat="43.93318" lon="4.94032">
        <ele>43</ele>
        <time>2013-10-26T10:18:21Z</time>
      </trkpt>
      <trkpt lat="43.93317" lon="4.94088">
        <ele>40</ele>
        <time>2013-10-26T10:18:52Z</time>
      </trkpt>
      <trkpt lat="43.93466" lon="4.94122">
        <ele>30</ele>
        <time>2013-10-26T10:19:22Z</time>
      </trkpt>
      <trkpt lat="43.93488" lon="4.94143">
        <ele>22</ele>
        <time>2013-10-26T10:19:52Z</time>
      </trkpt>
      <trkpt lat="43.93534" lon="4.94174">
        <ele>22</ele>
        <time>2013-10-26T10:20:23Z</time>
      </trkpt>
      <trkpt lat="43.93681" lon="4.94121">
        <ele>83.7</ele>
        <time>2013-10-26T10:20:53Z</time>
      </trkpt>
      <trkpt lat="43.93774" lon="4.94103">
        <ele>14</ele>
        <time>2013-10-26T10:21:23Z</time>
      </trkpt>
      <trkpt lat="43.93812" lon="4.9408">
        <ele>20</ele>
        <time>2013-10-26T10:21:54Z</time>
      </trkpt>
      <trkpt lat="43.93858" lon="4.94036">
        <ele>20</ele>
        <time>2013-10-26T10:22:24Z</time>
      </trkpt>
      <trkpt lat="43.93859" lon="4.9399">
        <ele>24</ele>
        <time>2013-10-26T10:22:55Z</time>
      </trkpt>
      <trkpt lat="43.93864" lon="4.93951">
        <ele>28</ele>
        <time>2013-10-26T10:23:25Z</time>
      </trkpt>
      <trkpt lat="43.93905" lon="4.93879">
        <ele>28</ele>
        <time>2013-10-26T10:23:55Z</time>
      </trkpt>
      <trkpt lat="43.93992" lon="4.9381">
        <ele>17</ele>
        <time>2013-10-26T10:24:25Z</time>
      </trkpt>
      <trkpt lat="43.94064" lon="4.93775">
        <ele>17</ele>
        <time>2013-10-26T10:24:56Z</time>
      </trkpt>
      <trkpt lat="43.9412" lon="4.93735">
        <ele>23</ele>
        <time>2013-10-26T10:25:26Z</time>
      </trkpt>
      <trkpt lat="43.94137" lon="4.9369">
        <ele>23</ele>
        <time>2013-10-26T10:25:57Z</time>
      </trkpt>
      <trkpt lat="43.94147" lon="4.93658">
        <ele>31</ele>
        <time>2013-10-26T10:26:28Z</time>
      </trkpt>
      <trkpt lat="43.94168" lon="4.93633">
        <ele>36</ele>
        <time>2013-10-26T10:26:59Z</time>
      </trkpt>
      <trkpt lat="43.94194" lon="4.93581">
        <ele>36</ele>
        <time>2013-10-26T10:27:30Z</time>
      </trkpt>
      <trkpt lat="43.94183" lon="4.93568">
        <ele>40</ele>
        <time>2013-10-26T10:28:02Z</time>
      </trkpt>
      <trkpt lat="43.94163" lon="4.93559">
        <ele>44</ele>
        <time>2013-10-26T10:28:32Z</time>
      </trkpt>
      <trkpt lat="43.94162" lon="4.93515">
        <ele>44</ele>
        <time>2013-10-26T10:29:04Z</time>
      </trkpt>
      <trkpt lat="43.94179" lon="4.93429">
        <ele>44</ele>
        <time>2013-10-26T10:29:34Z</time>
      </trkpt>
      <trkpt lat="43.94252" lon="4.93306">
        <ele>42</ele>
        <time>2013-10-26T10:30:04Z</time>
      </trkpt>
      <trkpt lat="43.94341" lon="4.93171">
        <ele>42</ele>
        <time>2013-10-26T10:30:35Z</time>
      </trkpt>
      <trkpt lat="43.94434" lon="4.93028">
        <ele>42</ele>
        <time>2013-10-26T10:31:05Z</time>
      </trkpt>
      <trkpt lat="43.945" lon="4.92829">
        <ele>42</ele>
        <time>2013-10-26T10:31:35Z</time>
      </trkpt>
      <trkpt lat="43.94556" lon="4.92617">
        <ele>42</ele>
        <time>2013-10-26T10:32:05Z</time>
      </trkpt>
      <trkpt lat="43.94677" lon="4.92499">
        <ele>42</ele>
        <time>2013-10-26T10:32:36Z</time>
      </trkpt>
      <trkpt lat="43.94822" lon="4.92429">
        <ele>45</ele>
        <time>2013-10-26T10:33:06Z</time>
      </trkpt>
      <trkpt lat="43.94939" lon="4.92367">
        <ele>38</ele>
        <time>2013-10-26T10:33:36Z</time>
      </trkpt>
      <trkpt lat="43.95058" lon="4.92276">
        <ele>33</ele>
        <time>2013-10-26T10:34:07Z</time>
      </trkpt>
      <trkpt lat="43.9519" lon="4.92344">
        <ele>33</ele>
        <time>2013-10-26T10:34:37Z</time>
      </trkpt>
      <trkpt lat="43.95369" lon="4.92247">
        <ele>24</ele>
        <time>2013-10-26T10:35:07Z</time>
      </trkpt>
      <trkpt lat="43.95378" lon="4.92134">
        <ele>24</ele>
        <time>2013-10-26T10:35:38Z</time>
      </trkpt>
      <trkpt lat="43.95411" lon="4.91938">
        <ele>24</ele>
        <time>2013-10-26T10:36:08Z</time>
      </trkpt>
      <trkpt lat="43.95487" lon="4.91981">
        <ele>28</ele>
        <time>2013-10-26T10:36:38Z</time>
      </trkpt>
      <trkpt lat="43.95523" lon="4.92009">
        <ele>33</ele>
        <time>2013-10-26T10:37:09Z</time>
      </trkpt>
      <trkpt lat="43.95555" lon="4.91996">
        <ele>37</ele>
        <time>2013-10-26T10:37:39Z</time>
      </trkpt>
      <trkpt lat="43.95602" lon="4.91989">
        <ele>41</ele>
        <time>2013-10-26T10:38:10Z</time>
      </trkpt>
      <trkpt lat="43.95631" lon="4.92042">
        <ele>46</ele>
        <time>2013-10-26T10:38:40Z</time>
      </trkpt>
      <trkpt lat="43.95679" lon="4.92112">
        <ele>46</ele>
        <time>2013-10-26T10:39:10Z</time>
      </trkpt>
      <trkpt lat="43.95758" lon="4.92074">
        <ele>46</ele>
        <time>2013-10-26T10:39:41Z</time>
      </trkpt>
      <trkpt lat="43.95853" lon="4.92003">
        <ele>46</ele>
        <time>2013-10-26T10:40:11Z</time>
      </trkpt>
      <trkpt lat="43.95947" lon="4.91906">
        <ele>35</ele>
        <time>2013-10-26T10:40:42Z</time>
      </trkpt>
      <trkpt lat="43.95942" lon="4.91803">
        <ele>36</ele>
        <time>2013-10-26T10:41:12Z</time>
      </trkpt>
      <trkpt lat="43.95965" lon="4.91674">
        <ele>36</ele>
        <time>2013-10-26T10:41:42Z</time>
      </trkpt>
      <trkpt lat="43.96001" lon="4.91706">
        <ele>40</ele>
        <time>2013-10-26T10:42:12Z</time>
      </trkpt>
      <trkpt lat="43.96019" lon="4.91744">
        <ele>40</ele>
        <time>2013-10-26T10:42:43Z</time>
      </trkpt>
      <trkpt lat="43.96034" lon="4.91782">
        <ele>45</ele>
        <time>2013-10-26T10:43:14Z</time>
      </trkpt>
      <trkpt lat="43.9606" lon="4.91786">
        <ele>49</ele>
        <time>2013-10-26T10:43:45Z</time>
      </trkpt>
      <trkpt lat="43.96131" lon="4.91758">
        <ele>49</ele>
        <time>2013-10-26T10:44:15Z</time>
      </trkpt>
      <trkpt lat="43.96192" lon="4.91681">
        <ele>42</ele>
        <time>2013-10-26T10:44:45Z</time>
      </trkpt>
      <trkpt lat="43.96308" lon="4.91635">
        <ele>29</ele>
        <time>2013-10-26T10:45:15Z</time>
      </trkpt>
      <trkpt lat="43.96451" lon="4.91612">
        <ele>8</ele>
        <time>2013-10-26T10:45:45Z</time>
      </trkpt>
      <trkpt lat="43.96602" lon="4.91593">
        <ele>8</ele>
        <time>2013-10-26T10:46:16Z</time>
      </trkpt>
      <trkpt lat="43.96747" lon="4.91697">
        <ele>-5</ele>
        <time>2013-10-26T10:46:46Z</time>
      </trkpt>
      <trkpt lat="43.96875" lon="4.91749">
        <ele>-9</ele>
        <time>2013-10-26T10:47:16Z</time>
      </trkpt>
      <trkpt lat="43.96871" lon="4.91609">
        <ele>-14</ele>
        <time>2013-10-26T10:47:46Z</time>
      </trkpt>
      <trkpt lat="43.96847" lon="4.91422">
        <ele>-14</ele>
        <time>2013-10-26T10:48:16Z</time>
      </trkpt>
      <trkpt lat="43.96796" lon="4.91253">
        <ele>-13</ele>
        <time>2013-10-26T10:48:46Z</time>
      </trkpt>
      <trkpt lat="43.96751" lon="4.9104">
        <ele>-13</ele>
        <time>2013-10-26T10:49:17Z</time>
      </trkpt>
      <trkpt lat="43.96712" lon="4.90807">
        <ele>-18</ele>
        <time>2013-10-26T10:49:47Z</time>
      </trkpt>
      <trkpt lat="43.96681" lon="4.90538">
        <ele>-28</ele>
        <time>2013-10-26T10:50:17Z</time>
      </trkpt>
      <trkpt lat="43.96738" lon="4.90315">
        <ele>-32</ele>
        <time>2013-10-26T10:50:47Z</time>
      </trkpt>
      <trkpt lat="43.96767" lon="4.90106">
        <ele>-32</ele>
        <time>2013-10-26T10:51:17Z</time>
      </trkpt>
      <trkpt lat="43.9689" lon="4.90058">
        <ele>-31</ele>
        <time>2013-10-26T10:51:48Z</time>
      </trkpt>
      <trkpt lat="43.97063" lon="4.90018">
        <ele>-31</ele>
        <time>2013-10-26T10:52:18Z</time>
      </trkpt>
      <trkpt lat="43.97247" lon="4.89999">
        <ele>-31</ele>
        <time>2013-10-26T10:52:48Z</time>
      </trkpt>
      <trkpt lat="43.97371" lon="4.9004">
        <ele>-31</ele>
        <time>2013-10-26T10:53:18Z</time>
      </trkpt>
      <trkpt lat="43.97396" lon="4.89981">
        <ele>-21</ele>
        <time>2013-10-26T10:53:48Z</time>
      </trkpt>
      <trkpt lat="43.9745" lon="4.89869">
        <ele>-21</ele>
        <time>2013-10-26T10:54:19Z</time>
      </trkpt>
      <trkpt lat="43.97401" lon="4.89603">
        <ele>-31</ele>
        <time>2013-10-26T10:54:49Z</time>
      </trkpt>
      <trkpt lat="43.97361" lon="4.89495">
        <ele>-27</ele>
        <time>2013-10-26T10:55:19Z</time>
      </trkpt>
      <trkpt lat="43.97459" lon="4.89461">
        <ele>-27</ele>
        <time>2013-10-26T10:55:49Z</time>
      </trkpt>
      <trkpt lat="43.97635" lon="4.89402">
        <ele>-27</ele>
        <time>2013-10-26T10:56:19Z</time>
      </trkpt>
      <trkpt lat="43.97711" lon="4.89219">
        <ele>-31</ele>
        <time>2013-10-26T10:56:50Z</time>
      </trkpt>
      <trkpt lat="43.97789" lon="4.88946">
        <ele>-36</ele>
        <time>2013-10-26T10:57:20Z</time>
      </trkpt>
      <trkpt lat="43.97858" lon="4.88968">
        <ele>-36</ele>
        <time>2013-10-26T10:57:50Z</time>
      </trkpt>
      <trkpt lat="43.97873" lon="4.88967">
        <ele>-36</ele>
        <time>2013-10-26T10:58:20Z</time>
      </trkpt>
      <trkpt lat="43.97889" lon="4.88942">
        <ele>-36</ele>
        <time>2013-10-26T10:58:51Z</time>
      </trkpt>
      <trkpt lat="43.97896" lon="4.88942">
        <ele>-36</ele>
        <time>2013-10-26T10:59:21Z</time>
      </trkpt>
      <trkpt lat="43.97883" lon="4.88943">
        <ele>-35</ele>
        <time>2013-10-26T10:59:51Z</time>
      </trkpt>
      <trkpt lat="43.97886" lon="4.88952">
        <ele>-35</ele>
        <time>2013-10-26T11:00:21Z</time>
      </trkpt>
      <trkpt lat="43.9789" lon="4.88943">
        <ele>-35</ele>
        <time>2013-10-26T11:00:51Z</time>
      </trkpt>
      <trkpt lat="43.97888" lon="4.88943">
        <ele>-35</ele>
        <time>2013-10-26T11:01:22Z</time>
      </trkpt>
      <trkpt lat="43.97893" lon="4.88949">
        <ele>-35</ele>
        <time>2013-10-26T11:01:52Z</time>
      </trkpt>
      <trkpt lat="43.97885" lon="4.88953">
        <ele>-35</ele>
        <time>2013-10-26T11:02:22Z</time>
      </trkpt>
    </trkseg>
  </trk>
</gpx>